»·PEaware :: ACA554 CYYT-CYHZ

ACA554 :: CYYT-CYHZ

FLIGHT INFORMATION

Flight Status: Arrived
Operator:
Air Canada
More flights by this operator :: More flights under this callsign
Pilot: Shawn G. (7208)
Aircraft: AIRBUS A320
(A320)
More flights by this aircraft type
Origin: CYYT St John's Intl
Canada
Destination: CYHZ Halifax Intl
Canada
More flights between these airports :: More routes between these airports
Route: ATLAN AGMIR LIRLA2
File this flight plan on PilotEdge
Remarks:
Altitude:
(Current/Filed)
38,000ft
Speed:
(Current/Filed)
444kts
Departed: 01-Dec-17 11:33 PM
Arrived: 02-Dec-17 12:56 AM
Distance/Time
Traveled:
475nm/1:23
Distance/Time
To Go:
Arrived

Flight Plot

Page will automatically refresh every two minutes.


Map Options




Map Legend


Flown Route
Filed Route
Departure Airport
Arrival Airport
Navaid (VOR, NDB)
Fix

Horizontal Profiles

Position Reports

Time Latitude Longitude Heading Altitude Ground
Speed
01-Dec-17 23:20 47.613572 -52.744793 203 468ft 0kts
01-Dec-17 23:21 47.613572 -52.744793 203 468ft 0kts
01-Dec-17 23:22 47.613572 -52.744793 203 468ft 0kts
01-Dec-17 23:23 47.613572 -52.744793 203 468ft 0kts
01-Dec-17 23:24 47.613572 -52.744793 203 468ft 0kts
01-Dec-17 23:25 47.613572 -52.744793 203 468ft 0kts
01-Dec-17 23:26 47.613572 -52.744793 203 468ft 0kts
01-Dec-17 23:27 47.613572 -52.744793 203 468ft 0kts
01-Dec-17 23:28 47.613572 -52.744793 203 468ft 0kts
01-Dec-17 23:29 47.613572 -52.744793 203 468ft 0kts
01-Dec-17 23:30 47.613572 -52.744793 203 468ft 0kts
01-Dec-17 23:31 47.613835 -52.744619 203 468ft 2kts
01-Dec-17 23:32 47.614263 -52.744809 119 468ft 2kts
01-Dec-17 23:33 47.614312 -52.744943 117 468ft 0kts
01-Dec-17 23:34 47.614312 -52.744943 117 468ft 0kts
01-Dec-17 23:35 47.613005 -52.742469 149 468ft 13kts
01-Dec-17 23:36 47.611243 -52.737520 117 468ft 7kts
01-Dec-17 23:37 47.611341 -52.735262 320 468ft 6kts
01-Dec-17 23:38 47.627688 -52.756440 318 1212ft 167kts
01-Dec-17 23:39 47.666929 -52.808609 318 4081ft 222kts
01-Dec-17 23:40 47.670778 -52.900349 254 6936ft 265kts
01-Dec-17 23:41 47.652082 -53.011616 254 9997ft 288kts
01-Dec-17 23:42 47.629116 -53.133132 253 12369ft 328kts
01-Dec-17 23:43 47.603176 -53.265278 252 15076ft 342kts
01-Dec-17 23:44 47.575896 -53.402244 251 17540ft 353kts
01-Dec-17 23:45 47.547519 -53.543432 251 19785ft 364kts
01-Dec-17 23:46 47.518242 -53.687988 249 21836ft 372kts
01-Dec-17 23:47 47.488005 -53.836171 249 23716ft 380kts
01-Dec-17 23:48 47.457046 -53.986751 249 25426ft 388kts
01-Dec-17 23:49 47.425205 -54.140452 249 27009ft 394kts
01-Dec-17 23:50 47.392795 -54.295693 249 28436ft 400kts
01-Dec-17 23:51 47.359566 -54.453631 249 29748ft 406kts
01-Dec-17 23:52 47.325741 -54.613151 249 30925ft 411kts
01-Dec-17 23:53 47.291281 -54.774397 248 31997ft 416kts
01-Dec-17 23:54 47.256257 -54.936990 248 32924ft 420kts
01-Dec-17 23:55 47.220961 -55.099706 248 34144ft 414kts
01-Dec-17 23:56 47.190529 -55.238893 248 35049ft 410kts
01-Dec-17 23:57 47.155438 -55.398123 248 35838ft 410kts
01-Dec-17 23:58 47.120192 -55.556912 248 36536ft 410kts
01-Dec-17 23:59 47.084676 -55.715725 247 37170ft 410kts
02-Dec-17 00:00 47.048939 -55.874331 247 37688ft 411kts
02-Dec-17 00:01 47.012927 -56.032979 247 38146ft 412kts
02-Dec-17 00:02 46.976615 -56.191799 248 38319ft 410kts
02-Dec-17 00:03 46.940272 -56.349550 248 38320ft 410kts
02-Dec-17 00:04 46.903582 -56.507637 248 38320ft 411kts
02-Dec-17 00:05 46.866658 -56.665584 248 38325ft 412kts
02-Dec-17 00:06 46.829412 -56.823780 248 38316ft 413kts
02-Dec-17 00:07 46.791984 -56.981621 248 38327ft 411kts
02-Dec-17 00:08 46.753793 -57.137369 245 38350ft 404kts
02-Dec-17 00:09 46.710697 -57.286750 245 38282ft 398kts
02-Dec-17 00:10 46.667927 -57.434255 245 38240ft 395kts
02-Dec-17 00:11 46.625112 -57.581010 245 38240ft 394kts
02-Dec-17 00:12 46.582037 -57.727789 244 38259ft 395kts
02-Dec-17 00:13 46.538648 -57.874768 244 38283ft 397kts
02-Dec-17 00:14 46.495005 -58.021754 244 38276ft 398kts
02-Dec-17 00:15 46.451154 -58.168570 244 38270ft 398kts
02-Dec-17 00:16 46.407104 -58.315194 244 38267ft 398kts
02-Dec-17 00:17 46.365497 -58.452882 244 38261ft 398kts
02-Dec-17 00:18 46.321123 -58.598904 244 38257ft 397kts
02-Dec-17 00:19 46.277015 -58.743218 244 38260ft 398kts
02-Dec-17 00:20 46.232188 -58.889047 243 38275ft 397kts
02-Dec-17 00:21 46.187397 -59.033944 242 38287ft 395kts
02-Dec-17 00:22 46.142710 -59.177672 242 38260ft 392kts
02-Dec-17 00:23 46.098031 -59.320548 242 38231ft 390kts
02-Dec-17 00:24 46.053391 -59.462505 242 38230ft 390kts
02-Dec-17 00:25 46.008622 -59.604082 242 38238ft 390kts
02-Dec-17 00:26 45.963456 -59.746146 242 38259ft 391kts
02-Dec-17 00:27 45.918080 -59.888103 241 38268ft 392kts
02-Dec-17 00:28 45.872510 -60.030021 242 38273ft 393kts
02-Dec-17 00:29 45.826501 -60.172009 242 38278ft 393kts
02-Dec-17 00:30 45.780539 -60.313470 242 38268ft 393kts
02-Dec-17 00:31 45.734291 -60.455038 242 38258ft 392kts
02-Dec-17 00:32 45.688153 -60.595489 242 38237ft 391kts
02-Dec-17 00:33 45.641601 -60.736414 241 38225ft 392kts
02-Dec-17 00:34 45.595124 -60.876362 241 38231ft 392kts
02-Dec-17 00:35 45.547735 -61.018242 241 36333ft 401kts
02-Dec-17 00:36 45.499621 -61.161584 242 33647ft 407kts
02-Dec-17 00:37 45.450204 -61.307986 242 31080ft 407kts
02-Dec-17 00:38 45.402486 -61.448775 242 29179ft 388kts
02-Dec-17 00:39 45.356298 -61.584168 243 26753ft 371kts
02-Dec-17 00:40 45.312321 -61.712438 242 24808ft 359kts
02-Dec-17 00:41 45.269089 -61.837895 242 22888ft 348kts
02-Dec-17 00:42 45.227746 -61.959550 247 21021ft 339kts
02-Dec-17 00:43 45.198646 -62.083913 250 19261ft 328kts
02-Dec-17 00:44 45.170522 -62.204507 250 17504ft 318kts
02-Dec-17 00:45 45.143133 -62.321361 251 15809ft 309kts
02-Dec-17 00:46 45.120716 -62.416550 251 14420ft 303kts
02-Dec-17 00:47 45.090095 -62.545945 250 12583ft 292kts
02-Dec-17 00:48 45.068738 -62.635748 250 11324ft 285kts
02-Dec-17 00:49 45.043883 -62.739811 250 10040ft 270kts
02-Dec-17 00:50 45.021497 -62.855788 271 8570ft 259kts
02-Dec-17 00:51 45.024234 -62.938872 272 7550ft 252kts
02-Dec-17 00:52 45.027276 -63.036328 273 6356ft 244kts
02-Dec-17 00:53 45.030151 -63.131142 274 5208ft 238kts
02-Dec-17 00:54 45.032870 -63.223558 274 4192ft 230kts
02-Dec-17 00:55 45.035318 -63.308498 275 3848ft 208kts
02-Dec-17 00:56 45.014120 -63.380426 219 3495ft 215kts
02-Dec-17 00:57 44.969231 -63.425145 218 2294ft 189kts
02-Dec-17 00:58 44.939048 -63.454889 218 1606ft 176kts
02-Dec-17 00:59 44.904163 -63.489311 220 855ft 151kts
02-Dec-17 01:00 44.872611 -63.520302 217 486ft 82kts
02-Dec-17 01:01 44.870330 -63.525132 358 486ft 0kts
02-Dec-17 01:02 44.872318 -63.524057 34 486ft 14kts
02-Dec-17 01:03 44.876179 -63.520311 33 486ft 20kts
02-Dec-17 01:04 44.880624 -63.515959 34 486ft 10kts
02-Dec-17 01:05 44.883547 -63.513098 35 486ft 16kts
02-Dec-17 01:06 44.886018 -63.512411 349 486ft 14kts
02-Dec-17 01:07 44.886152 -63.512786 176 486ft 7kts
02-Dec-17 01:08 44.885274 -63.513491 227 486ft 0kts
02-Dec-17 01:09 44.885274 -63.513491 227 486ft 0kts
02-Dec-17 01:10 44.885274 -63.513491 227 486ft 0kts
02-Dec-17 01:11 44.885274 -63.513491 227 486ft 0kts

Navigation Log

Ident Type
Flight plan parsing failed, navigation log unavailable